PWSweather.com
Personal Weather Stations
Station Observations
270882
Flassian, LimouxFR 11300

FlassianLimouxFR 11300

Lat: 43.071798, Lon: 2.217292

Elevation: 165

Station Type: Oregon WMR 200

http://www.meteolimoux.fr

High Low Average
Temperature 55.9°F13.3°F 46.4°F8.0°F 49.6°F9.8°F
Dew Point 49.3°F9.6°F 34.9°F1.6°F 39.3°F4.1°F
Winds 18.1 mph WSW29.1 mph WSW 3.6 mph 5.8 mph 11.1 mph 17.9 mph
Wind Gusts 48.3 mph77.7 mph 5.1 mph8.2 mph 24.7 mph39.8 mph
Humidity 84% 58% 67%
Pressure 30.31 in1026.40 in 29.99 in1015.60 in -
Precipitation 1.47 in37.30 in - -
Hour Temp Dew Point Humidity Winds Wind Gusts Pressure Precip Precip Rate Daily Precip Total
12:02 AM 55.9°F13.3°C 47.8°F8.8°C 74% 11.9 mph WSW19.2 kmh WSW 28.9 mph46.5 kmh 30.04 in1017.3 mb - 0.00 in0.0 mm 0.00 in0.0 mm
12:07 AM 55.9°F13.3°C 48.2°F9.0°C 75% 11.9 mph W19.2 kmh W 32.4 mph52.1 kmh 30.04 in1017.3 mb - 0.00 in0.0 mm 0.00 in0.0 mm
12:12 AM 55.4°F13.0°C 48.4°F9.1°C 77% 9.6 mph NW15.4 kmh NW 23.0 mph37.0 kmh 30.04 in1017.3 mb - 0.00 in0.0 mm 0.00 in0.0 mm
12:17 AM 55.0°F12.8°C 48.4°F9.1°C 78% 9.6 mph W15.4 kmh W 9.6 mph15.4 kmh 30.04 in1017.3 mb - 0.00 in0.0 mm 0.00 in0.0 mm
12:22 AM 55.2°F12.9°C 48.6°F9.2°C 78% 9.8 mph W15.8 kmh W 18.1 mph29.1 kmh 30.04 in1017.3 mb - 0.00 in0.0 mm 0.00 in0.0 mm
12:27 AM 55.6°F13.1°C 47.8°F8.8°C 75% 8.5 mph W13.7 kmh W 16.8 mph27.0 kmh 30.04 in1017.3 mb - 0.00 in0.0 mm 0.00 in0.0 mm
12:32 AM 55.6°F13.1°C 48.2°F9.0°C 76% 10.3 mph NW16.6 kmh NW 25.5 mph41.0 kmh 30.04 in1017.3 mb - 0.00 in0.0 mm 0.00 in0.0 mm
12:37 AM 55.6°F13.1°C 48.2°F9.0°C 76% 11.4 mph WNW18.3 kmh WNW 25.1 mph40.4 kmh 30.04 in1017.3 mb - 0.00 in0.0 mm 0.00 in0.0 mm
12:42 AM 55.8°F13.2°C 47.7°F8.7°C 74% 10.5 mph NW16.9 kmh NW 22.4 mph36.0 kmh 30.04 in1017.3 mb - 0.00 in0.0 mm 0.00 in0.0 mm
12:47 AM 55.9°F13.3°C 47.5°F8.6°C 73% 11.0 mph WNW17.7 kmh WNW 11.0 mph17.7 kmh 30.01 in1016.3 mb - 0.00 in0.0 mm 0.00 in0.0 mm
12:52 AM 55.8°F13.2°C 48.0°F8.9°C 75% 9.6 mph NW15.4 kmh NW 23.7 mph38.1 kmh 30.01 in1016.3 mb - 0.00 in0.0 mm 0.00 in0.0 mm
12:57 AM 55.2°F12.9°C 48.2°F9.0°C 77% 11.0 mph W17.7 kmh W 27.1 mph43.6 kmh 30.01 in1016.3 mb - 0.00 in0.0 mm 0.00 in0.0 mm
01:02 AM 55.0°F12.8°C 48.4°F9.1°C 78% 11.6 mph NW18.7 kmh NW 25.1 mph40.4 kmh 30.01 in1016.3 mb - 0.00 in0.0 mm 0.00 in0.0 mm
01:07 AM 54.5°F12.5°C 48.7°F9.3°C 81% 12.5 mph WNW20.1 kmh WNW 21.3 mph34.3 kmh 30.01 in1016.3 mb - 0.00 in0.0 mm 0.00 in0.0 mm
01:12 AM 54.0°F12.2°C 48.9°F9.4°C 83% 11.0 mph NW17.7 kmh NW 27.1 mph43.6 kmh 30.01 in1016.3 mb - 0.00 in0.0 mm 0.00 in0.0 mm
01:17 AM 53.8°F12.1°C 49.1°F9.5°C 84% 12.8 mph NW20.6 kmh NW 30.0 mph48.3 kmh 30.01 in1016.3 mb - 0.00 in0.0 mm 0.00 in0.0 mm
01:22 AM 53.8°F12.1°C 49.1°F9.5°C 84% 11.9 mph WNW19.2 kmh WNW 28.6 mph46.0 kmh 30.01 in1016.3 mb - 0.00 in0.0 mm 0.00 in0.0 mm
01:27 AM 54.0°F12.2°C 49.3°F9.6°C 84% 14.3 mph NW23.0 kmh NW 25.3 mph40.7 kmh 30.01 in1016.3 mb - 0.00 in0.0 mm 0.00 in0.0 mm
01:32 AM 54.0°F12.2°C 49.3°F9.6°C 84% 12.3 mph NW19.8 kmh NW 21.9 mph35.2 kmh 29.99 in1015.6 mb - 0.00 in0.0 mm 0.00 in0.0 mm
01:37 AM 54.0°F12.2°C 48.9°F9.4°C 83% 13.2 mph NW21.2 kmh NW 26.6 mph42.8 kmh 29.99 in1015.6 mb - 0.00 in0.0 mm 0.00 in0.0 mm
01:42 AM 54.0°F12.2°C 48.9°F9.4°C 83% 10.7 mph WNW17.2 kmh WNW 22.1 mph35.6 kmh 29.99 in1015.6 mb - 0.00 in0.0 mm 0.00 in0.0 mm
01:47 AM 54.1°F12.3°C 49.1°F9.5°C 83% 10.7 mph NW17.2 kmh NW 23.3 mph37.5 kmh 29.99 in1015.6 mb - 0.00 in0.0 mm 0.00 in0.0 mm
01:52 AM 54.1°F12.3°C 49.1°F9.5°C 83% 11.0 mph NW17.7 kmh NW 28.9 mph46.5 kmh 29.99 in1015.6 mb - 0.00 in0.0 mm 0.00 in0.0 mm
01:57 AM 54.1°F12.3°C 49.1°F9.5°C 83% 11.4 mph NW18.3 kmh NW 22.1 mph35.6 kmh 29.99 in1015.6 mb - 0.00 in0.0 mm 0.00 in0.0 mm
02:02 AM 54.5°F12.5°C 48.2°F9.0°C 79% 11.0 mph NW17.7 kmh NW 20.8 mph33.5 kmh 30.01 in1016.3 mb - 0.00 in0.0 mm 0.00 in0.0 mm
02:07 AM 55.0°F12.8°C 47.3°F8.5°C 75% 10.1 mph NW16.3 kmh NW 10.1 mph16.3 kmh 30.01 in1016.3 mb - 0.00 in0.0 mm 0.00 in0.0 mm
02:12 AM 55.4°F13.0°C 46.2°F7.9°C 71% 13.9 mph NW22.4 kmh NW 39.6 mph63.7 kmh 30.01 in1016.3 mb - 0.00 in0.0 mm 0.00 in0.0 mm
02:17 AM 55.4°F13.0°C 46.2°F7.9°C 71% 13.6 mph NW21.9 kmh NW 37.6 mph60.5 kmh 29.99 in1015.6 mb - 0.00 in0.0 mm 0.00 in0.0 mm
02:22 AM 55.6°F13.1°C 45.5°F7.5°C 69% 12.1 mph W19.5 kmh W 38.3 mph61.6 kmh 29.99 in1015.6 mb - 0.00 in0.0 mm 0.00 in0.0 mm
02:27 AM 55.6°F13.1°C 45.1°F7.3°C 68% 8.9 mph NW14.3 kmh NW 27.3 mph43.9 kmh 29.99 in1015.6 mb - 0.00 in0.0 mm 0.00 in0.0 mm
02:32 AM 55.6°F13.1°C 44.8°F7.1°C 67% 14.5 mph WSW23.3 kmh WSW 32.0 mph51.5 kmh 30.01 in1016.3 mb - 0.00 in0.0 mm 0.00 in0.0 mm
02:37 AM 55.6°F13.1°C 44.8°F7.1°C 67% 13.4 mph W21.6 kmh W 30.0 mph48.3 kmh 30.01 in1016.3 mb - 0.00 in0.0 mm 0.00 in0.0 mm
02:42 AM 55.6°F13.1°C 44.8°F7.1°C 67% 11.9 mph NW19.2 kmh NW 30.6 mph49.2 kmh 30.01 in1016.3 mb - 0.00 in0.0 mm 0.00 in0.0 mm
02:47 AM 55.4°F13.0°C 44.6°F7.0°C 67% 10.7 mph NW17.2 kmh NW 21.0 mph33.8 kmh 30.04 in1017.3 mb - 0.00 in0.0 mm 0.00 in0.0 mm
02:52 AM 55.4°F13.0°C 44.6°F7.0°C 67% 10.5 mph WSW16.9 kmh WSW 24.4 mph39.3 kmh 30.04 in1017.3 mb - 0.00 in0.0 mm 0.00 in0.0 mm
02:57 AM 55.4°F13.0°C 44.6°F7.0°C 67% 10.7 mph WNW17.2 kmh WNW 23.3 mph37.5 kmh 30.04 in1017.3 mb - 0.00 in0.0 mm 0.00 in0.0 mm
03:02 AM 55.4°F13.0°C 44.2°F6.8°C 66% 11.6 mph WSW18.7 kmh WSW 27.3 mph43.9 kmh 30.04 in1017.3 mb - 0.00 in0.0 mm 0.00 in0.0 mm
03:07 AM 55.6°F13.1°C 44.4°F6.9°C 66% 11.0 mph WNW17.7 kmh WNW 28.2 mph45.4 kmh 30.04 in1017.3 mb - 0.00 in0.0 mm 0.00 in0.0 mm
03:12 AM 55.6°F13.1°C 44.1°F6.7°C 65% 10.7 mph WSW17.2 kmh WSW 27.1 mph43.6 kmh 30.04 in1017.3 mb - 0.00 in0.0 mm 0.00 in0.0 mm
03:17 AM 55.6°F13.1°C 44.1°F6.7°C 65% 9.8 mph WSW15.8 kmh WSW 22.1 mph35.6 kmh 30.04 in1017.3 mb - 0.00 in0.0 mm 0.00 in0.0 mm
03:22 AM 55.6°F13.1°C 43.7°F6.5°C 64% 9.6 mph W15.4 kmh W 24.4 mph39.3 kmh 30.04 in1017.3 mb - 0.00 in0.0 mm 0.00 in0.0 mm
03:27 AM 55.8°F13.2°C 43.7°F6.5°C 64% 14.8 mph W23.8 kmh W 33.8 mph54.4 kmh 30.04 in1017.3 mb - 0.00 in0.0 mm 0.00 in0.0 mm
03:32 AM 55.6°F13.1°C 43.7°F6.5°C 64% 13.2 mph W21.2 kmh W 33.6 mph54.1 kmh 30.04 in1017.3 mb - 0.00 in0.0 mm 0.00 in0.0 mm
03:37 AM 54.1°F12.3°C 45.3°F7.4°C 72% 15.4 mph WSW24.8 kmh WSW 33.1 mph53.3 kmh 30.04 in1017.3 mb - 0.00 in0.0 mm 0.00 in0.0 mm
03:42 AM 53.2°F11.8°C 46.2°F7.9°C 77% 11.4 mph WNW18.3 kmh WNW 25.9 mph41.7 kmh 30.04 in1017.3 mb - 0.00 in0.0 mm 0.04 in1.0 mm
03:47 AM 52.5°F11.4°C 45.9°F7.7°C 78% 16.6 mph WNW26.7 kmh WNW 37.8 mph60.8 kmh 30.01 in1016.3 mb - 0.00 in0.0 mm 0.04 in1.0 mm
03:52 AM 52.3°F11.3°C 44.6°F7.0°C 75% 16.8 mph NW27.0 kmh NW 31.1 mph50.1 kmh 30.01 in1016.3 mb - 0.00 in0.0 mm 0.04 in1.0 mm
03:57 AM 52.2°F11.2°C 44.1°F6.7°C 74% 14.8 mph NW23.8 kmh NW 38.0 mph61.2 kmh 30.01 in1016.3 mb - 0.00 in0.0 mm 0.04 in1.0 mm
04:02 AM 52.0°F11.1°C 43.7°F6.5°C 73% 17.4 mph W28.0 kmh W 40.9 mph65.8 kmh 30.04 in1017.3 mb - 0.00 in0.0 mm 0.04 in1.0 mm
04:07 AM 52.2°F11.2°C 42.6°F5.9°C 70% 15.4 mph NW24.8 kmh NW 34.4 mph55.4 kmh 30.04 in1017.3 mb - 0.00 in0.0 mm 0.04 in1.0 mm
04:12 AM 52.2°F11.2°C 42.6°F5.9°C 70% 12.3 mph NW19.8 kmh NW 40.0 mph64.4 kmh 30.04 in1017.3 mb - 0.00 in0.0 mm 0.04 in1.0 mm
04:17 AM 52.0°F11.1°C 42.4°F5.8°C 70% 16.1 mph W25.9 kmh W 37.4 mph60.2 kmh 30.04 in1017.3 mb - 0.00 in0.0 mm 0.04 in1.0 mm
04:22 AM 52.0°F11.1°C 42.1°F5.6°C 69% 14.8 mph NW23.8 kmh NW 30.4 mph48.9 kmh 30.04 in1017.3 mb - 0.00 in0.0 mm 0.04 in1.0 mm
04:27 AM 52.2°F11.2°C 41.9°F5.5°C 68% 13.6 mph WNW21.9 kmh WNW 28.2 mph45.4 kmh 30.04 in1017.3 mb - 0.00 in0.0 mm 0.04 in1.0 mm
04:32 AM 52.0°F11.1°C 42.1°F5.6°C 69% 13.4 mph WNW21.6 kmh WNW 38.7 mph62.3 kmh 30.07 in1018.3 mb - 0.00 in0.0 mm 0.04 in1.0 mm
04:37 AM 52.0°F11.1°C 41.4°F5.2°C 67% 15.0 mph WNW24.1 kmh WNW 35.6 mph57.3 kmh 30.07 in1018.3 mb - 0.00 in0.0 mm 0.04 in1.0 mm
04:42 AM 52.0°F11.1°C 40.6°F4.8°C 65% 13.6 mph W21.9 kmh W 33.1 mph53.3 kmh 30.07 in1018.3 mb - 0.00 in0.0 mm 0.04 in1.0 mm
04:47 AM 52.0°F11.1°C 40.3°F4.6°C 64% 14.5 mph W23.3 kmh W 36.2 mph58.3 kmh 30.04 in1017.3 mb - 0.00 in0.0 mm 0.04 in1.0 mm
04:52 AM 51.8°F11.0°C 40.1°F4.5°C 64% 13.2 mph W21.2 kmh W 34.0 mph54.7 kmh 30.04 in1017.3 mb - 0.00 in0.0 mm 0.04 in1.0 mm
04:57 AM 51.4°F10.8°C 40.1°F4.5°C 65% 15.2 mph W24.5 kmh W 38.9 mph62.6 kmh 30.04 in1017.3 mb - 0.00 in0.0 mm 0.04 in1.0 mm
05:02 AM 51.1°F10.6°C 40.1°F4.5°C 66% 12.5 mph WNW20.1 kmh WNW 28.9 mph46.5 kmh 30.07 in1018.3 mb - 0.00 in0.0 mm 0.04 in1.0 mm
05:07 AM 50.5°F10.3°C 40.1°F4.5°C 67% 12.8 mph NW20.6 kmh NW 28.2 mph45.4 kmh 30.07 in1018.3 mb - 0.00 in0.0 mm 0.04 in1.0 mm
05:12 AM 50.4°F10.2°C 39.9°F4.4°C 67% 14.3 mph NW23.0 kmh NW 39.8 mph64.1 kmh 30.07 in1018.3 mb - 0.00 in0.0 mm 0.04 in1.0 mm
05:17 AM 50.2°F10.1°C 39.7°F4.3°C 67% 10.3 mph WSW16.6 kmh WSW 26.6 mph42.8 kmh 30.07 in1018.3 mb - 0.00 in0.0 mm 0.04 in1.0 mm
05:22 AM 50.4°F10.2°C 39.9°F4.4°C 67% 11.6 mph W18.7 kmh W 28.9 mph46.5 kmh 30.07 in1018.3 mb - 0.00 in0.0 mm 0.04 in1.0 mm
05:27 AM 50.4°F10.2°C 39.0°F3.9°C 65% 10.7 mph W17.2 kmh W 28.2 mph45.4 kmh 30.07 in1018.3 mb - 0.00 in0.0 mm 0.04 in1.0 mm
05:32 AM 50.7°F10.4°C 39.0°F3.9°C 64% 11.6 mph WNW18.7 kmh WNW 30.2 mph48.6 kmh 30.07 in1018.3 mb - 0.00 in0.0 mm 0.04 in1.0 mm
05:37 AM 50.7°F10.4°C 38.7°F3.7°C 63% 12.8 mph NW20.6 kmh NW 26.4 mph42.5 kmh 30.07 in1018.3 mb - 0.00 in0.0 mm 0.04 in1.0 mm
05:42 AM 50.9°F10.5°C 38.3°F3.5°C 62% 12.3 mph WNW19.8 kmh WNW 32.9 mph52.9 kmh 30.07 in1018.3 mb - 0.00 in0.0 mm 0.04 in1.0 mm
05:47 AM 50.9°F10.5°C 38.3°F3.5°C 62% 13.2 mph WNW21.2 kmh WNW 30.0 mph48.3 kmh 30.07 in1018.3 mb - 0.00 in0.0 mm 0.04 in1.0 mm
05:52 AM 50.9°F10.5°C 38.3°F3.5°C 62% 14.3 mph NW23.0 kmh NW 28.2 mph45.4 kmh 30.07 in1018.3 mb - 0.00 in0.0 mm 0.04 in1.0 mm
05:57 AM 50.9°F10.5°C 38.3°F3.5°C 62% 13.2 mph WNW21.2 kmh WNW 30.4 mph48.9 kmh 30.07 in1018.3 mb - 0.00 in0.0 mm 0.04 in1.0 mm
06:02 AM 50.7°F10.4°C 38.7°F3.7°C 63% 14.1 mph NW22.7 kmh NW 42.7 mph68.7 kmh 30.10 in1019.3 mb - 0.00 in0.0 mm 0.04 in1.0 mm
06:07 AM 50.4°F10.2°C 38.7°F3.7°C 64% 10.3 mph WNW16.6 kmh WNW 23.7 mph38.1 kmh 30.10 in1019.3 mb - 0.00 in0.0 mm 0.04 in1.0 mm
06:12 AM 50.4°F10.2°C 39.0°F3.9°C 65% 15.0 mph WSW24.1 kmh WSW 38.0 mph61.2 kmh 30.10 in1019.3 mb - 0.00 in0.0 mm 0.04 in1.0 mm
06:17 AM 50.0°F10.0°C 39.6°F4.2°C 67% 11.9 mph NW19.2 kmh NW 26.2 mph42.2 kmh 30.10 in1019.3 mb - 0.00 in0.0 mm 0.04 in1.0 mm
06:22 AM 50.0°F10.0°C 39.9°F4.4°C 68% 13.0 mph WSW20.9 kmh WSW 32.0 mph51.5 kmh 30.10 in1019.3 mb - 0.00 in0.0 mm 0.04 in1.0 mm
06:27 AM 50.0°F10.0°C 39.6°F4.2°C 67% 13.0 mph WNW20.9 kmh WNW 30.2 mph48.6 kmh 30.10 in1019.3 mb - 0.00 in0.0 mm 0.04 in1.0 mm
06:32 AM 49.8°F9.9°C 39.7°F4.3°C 68% 14.5 mph WNW23.3 kmh WNW 34.4 mph55.4 kmh 30.10 in1019.3 mb - 0.00 in0.0 mm 0.04 in1.0 mm
06:37 AM 49.8°F9.9°C 40.1°F4.5°C 69% 16.8 mph NW27.0 kmh NW 33.8 mph54.4 kmh 30.10 in1019.3 mb - 0.00 in0.0 mm 0.04 in1.0 mm
06:42 AM 49.8°F9.9°C 40.1°F4.5°C 69% 13.4 mph NW21.6 kmh NW 29.8 mph48.0 kmh 30.10 in1019.3 mb - 0.00 in0.0 mm 0.04 in1.0 mm
06:47 AM 49.8°F9.9°C 39.7°F4.3°C 68% 15.4 mph W24.8 kmh W 35.1 mph56.5 kmh 30.07 in1018.3 mb - 0.00 in0.0 mm 0.04 in1.0 mm
06:52 AM 50.0°F10.0°C 39.2°F4.0°C 66% 12.1 mph W19.5 kmh W 27.7 mph44.6 kmh 30.07 in1018.3 mb - 0.00 in0.0 mm 0.04 in1.0 mm
06:57 AM 50.0°F10.0°C 39.2°F4.0°C 66% 13.9 mph WSW22.4 kmh WSW 36.7 mph59.1 kmh 30.07 in1018.3 mb - 0.00 in0.0 mm 0.04 in1.0 mm
07:02 AM 50.0°F10.0°C 38.7°F3.7°C 65% 14.8 mph WNW23.8 kmh WNW 31.1 mph50.1 kmh 30.10 in1019.3 mb - 0.00 in0.0 mm 0.04 in1.0 mm
07:07 AM 50.2°F10.1°C 38.8°F3.8°C 65% 9.6 mph NW15.4 kmh NW 22.6 mph36.4 kmh 30.10 in1019.3 mb - 0.00 in0.0 mm 0.04 in1.0 mm
07:12 AM 50.4°F10.2°C 38.7°F3.7°C 64% 10.1 mph W16.3 kmh W 35.8 mph57.6 kmh 30.10 in1019.3 mb - 0.00 in0.0 mm 0.04 in1.0 mm
07:17 AM 49.6°F9.8°C 39.6°F4.2°C 68% 13.0 mph NW20.9 kmh NW 38.7 mph62.3 kmh 30.07 in1018.3 mb - 0.00 in0.0 mm 0.04 in1.0 mm
07:22 AM 49.3°F9.6°C 39.6°F4.2°C 69% 14.8 mph WNW23.8 kmh WNW 37.6 mph60.5 kmh 30.07 in1018.3 mb - 0.00 in0.0 mm 0.04 in1.0 mm
07:27 AM 48.2°F9.0°C 40.3°F4.6°C 74% 16.8 mph W27.0 kmh W 34.9 mph56.2 kmh 30.07 in1018.3 mb - 0.00 in0.0 mm 0.04 in1.0 mm
07:32 AM 47.8°F8.8°C 40.3°F4.6°C 75% 15.7 mph NW25.3 kmh NW 32.9 mph52.9 kmh 30.10 in1019.3 mb - 0.00 in0.0 mm 0.04 in1.0 mm
07:37 AM 47.8°F8.8°C 39.9°F4.4°C 74% 13.6 mph NW21.9 kmh NW 24.2 mph38.9 kmh 30.10 in1019.3 mb - 0.00 in0.0 mm 0.08 in2.0 mm
07:42 AM 47.7°F8.7°C 39.4°F4.1°C 73% 13.2 mph NNW21.2 kmh NNW 38.7 mph62.3 kmh 30.10 in1019.3 mb - 0.00 in0.0 mm 0.08 in2.0 mm
07:47 AM 47.7°F8.7°C 38.3°F3.5°C 70% 12.1 mph WNW19.5 kmh WNW 31.8 mph51.2 kmh 30.13 in1020.3 mb - 0.00 in0.0 mm 0.08 in2.0 mm
07:52 AM 47.7°F8.7°C 38.3°F3.5°C 70% 11.4 mph WNW18.3 kmh WNW 38.5 mph62.0 kmh 30.13 in1020.3 mb - 0.00 in0.0 mm 0.08 in2.0 mm
07:57 AM 47.5°F8.6°C 38.5°F3.6°C 71% 16.1 mph WNW25.9 kmh WNW 39.8 mph64.1 kmh 30.13 in1020.3 mb - 0.00 in0.0 mm 0.08 in2.0 mm
08:02 AM 47.7°F8.7°C 38.7°F3.7°C 71% 13.6 mph WNW21.9 kmh WNW 43.6 mph70.2 kmh 30.13 in1020.3 mb - 0.00 in0.0 mm 0.08 in2.0 mm
08:07 AM 47.7°F8.7°C 39.0°F3.9°C 72% 8.1 mph NW13.0 kmh NW 20.4 mph32.8 kmh 30.13 in1020.3 mb - 0.00 in0.0 mm 0.08 in2.0 mm
08:12 AM 47.7°F8.7°C 39.4°F4.1°C 73% 12.5 mph WSW20.1 kmh WSW 26.4 mph42.5 kmh 30.13 in1020.3 mb - 0.00 in0.0 mm 0.08 in2.0 mm
08:17 AM 48.0°F8.9°C 39.0°F3.9°C 71% 13.4 mph WSW21.6 kmh WSW 32.0 mph51.5 kmh 30.16 in1021.3 mb - 0.00 in0.0 mm 0.08 in2.0 mm
08:22 AM 47.8°F8.8°C 38.5°F3.6°C 70% 11.6 mph NW18.7 kmh NW 27.1 mph43.6 kmh 30.16 in1021.3 mb - 0.00 in0.0 mm 0.08 in2.0 mm
08:27 AM 48.0°F8.9°C 38.3°F3.5°C 69% 13.6 mph W21.9 kmh W 38.3 mph61.6 kmh 30.16 in1021.3 mb - 0.00 in0.0 mm 0.08 in2.0 mm
08:32 AM 48.0°F8.9°C 38.3°F3.5°C 69% 9.4 mph WNW15.1 kmh WNW 23.3 mph37.5 kmh 30.16 in1021.3 mb - 0.00 in0.0 mm 0.08 in2.0 mm
08:37 AM 48.2°F9.0°C 38.5°F3.6°C 69% 8.5 mph NW13.7 kmh NW 22.4 mph36.0 kmh 30.16 in1021.3 mb - 0.00 in0.0 mm 0.08 in2.0 mm
08:42 AM 48.4°F9.1°C 37.9°F3.3°C 67% 10.3 mph WNW16.6 kmh WNW 22.8 mph36.7 kmh 30.16 in1021.3 mb - 0.00 in0.0 mm 0.08 in2.0 mm
08:47 AM 48.6°F9.2°C 38.1°F3.4°C 67% 14.3 mph W23.0 kmh W 28.0 mph45.1 kmh 30.16 in1021.3 mb - 0.00 in0.0 mm 0.08 in2.0 mm
08:52 AM 48.7°F9.3°C 38.3°F3.5°C 67% 14.1 mph WSW22.7 kmh WSW 31.1 mph50.1 kmh 30.16 in1021.3 mb - 0.00 in0.0 mm 0.08 in2.0 mm
08:57 AM 48.9°F9.4°C 38.5°F3.6°C 67% 14.8 mph W23.8 kmh W 28.4 mph45.7 kmh 30.16 in1021.3 mb - 0.00 in0.0 mm 0.08 in2.0 mm
09:02 AM 48.9°F9.4°C 38.8°F3.8°C 68% 12.5 mph WNW20.1 kmh WNW 30.2 mph48.6 kmh 30.16 in1021.3 mb - 0.00 in0.0 mm 0.08 in2.0 mm
09:07 AM 48.9°F9.4°C 39.2°F4.0°C 69% 13.6 mph W21.9 kmh W 29.8 mph48.0 kmh 30.16 in1021.3 mb - 0.00 in0.0 mm 0.08 in2.0 mm
09:12 AM 48.7°F9.3°C 39.4°F4.1°C 70% 12.8 mph W20.6 kmh W 24.4 mph39.3 kmh 30.16 in1021.3 mb - 0.00 in0.0 mm 0.08 in2.0 mm
09:17 AM 48.4°F9.1°C 40.1°F4.5°C 73% 9.8 mph SSW15.8 kmh SSW 20.6 mph33.2 kmh 30.13 in1020.3 mb - 0.00 in0.0 mm 0.08 in2.0 mm
09:22 AM 47.8°F8.8°C 40.3°F4.6°C 75% 11.0 mph WSW17.7 kmh WSW 28.9 mph46.5 kmh 30.13 in1020.3 mb - 0.00 in0.0 mm 0.08 in2.0 mm
09:27 AM 47.5°F8.6°C 39.9°F4.4°C 75% 13.4 mph WNW21.6 kmh WNW 41.2 mph66.3 kmh 30.13 in1020.3 mb - 0.03 in0.8 mm 0.08 in2.0 mm
09:32 AM 46.9°F8.3°C 39.4°F4.1°C 75% 14.5 mph WNW23.3 kmh WNW 29.1 mph46.8 kmh 30.19 in1022.4 mb - 0.03 in0.8 mm 0.12 in3.0 mm
09:37 AM 46.8°F8.2°C 38.3°F3.5°C 72% 14.3 mph WNW23.0 kmh WNW 39.4 mph63.4 kmh 30.19 in1022.4 mb - 0.03 in0.8 mm 0.12 in3.0 mm
09:42 AM 46.4°F8.0°C 37.2°F2.9°C 70% 13.9 mph WNW22.4 kmh WNW 32.7 mph52.6 kmh 30.19 in1022.4 mb - 0.03 in0.8 mm 0.12 in3.0 mm
09:47 AM 46.4°F8.0°C 36.5°F2.5°C 68% 15.4 mph WSW24.8 kmh WSW 48.3 mph77.7 kmh 30.19 in1022.4 mb - 0.03 in0.8 mm 0.12 in3.0 mm
09:52 AM 46.6°F8.1°C 37.0°F2.8°C 69% 11.2 mph W18.0 kmh W 28.4 mph45.7 kmh 30.19 in1022.4 mb - 0.03 in0.8 mm 0.12 in3.0 mm
09:57 AM 46.6°F8.1°C 37.0°F2.8°C 69% 12.5 mph WSW20.1 kmh WSW 27.5 mph44.3 kmh 30.19 in1022.4 mb - 0.03 in0.8 mm 0.12 in3.0 mm
10:02 AM 46.8°F8.2°C 37.6°F3.1°C 70% 9.8 mph WNW15.8 kmh WNW 25.5 mph41.0 kmh 30.19 in1022.4 mb - 0.03 in0.8 mm 0.12 in3.0 mm
10:07 AM 46.8°F8.2°C 37.6°F3.1°C 70% 11.4 mph WSW18.3 kmh WSW 28.0 mph45.1 kmh 30.19 in1022.4 mb - 0.03 in0.8 mm 0.12 in3.0 mm
10:12 AM 47.1°F8.4°C 37.9°F3.3°C 70% 11.0 mph WSW17.7 kmh WSW 21.5 mph34.6 kmh 30.19 in1022.4 mb - 0.03 in0.8 mm 0.12 in3.0 mm
10:17 AM 47.1°F8.4°C 37.9°F3.3°C 70% 11.4 mph NW18.3 kmh NW 23.9 mph38.5 kmh 30.19 in1022.4 mb - 0.03 in0.8 mm 0.12 in3.0 mm
10:22 AM 47.1°F8.4°C 37.9°F3.3°C 70% 9.8 mph WNW15.8 kmh WNW 22.6 mph36.4 kmh 30.19 in1022.4 mb - 0.03 in0.8 mm 0.12 in3.0 mm
10:27 AM 47.3°F8.5°C 38.1°F3.4°C 70% 10.1 mph WNW16.3 kmh WNW 22.4 mph36.0 kmh 30.19 in1022.4 mb - 0.03 in0.8 mm 0.12 in3.0 mm
10:32 AM 47.5°F8.6°C 37.8°F3.2°C 69% 8.3 mph W13.4 kmh W 22.1 mph35.6 kmh 30.22 in1023.4 mb - 0.03 in0.8 mm 0.12 in3.0 mm
10:37 AM 47.7°F8.7°C 37.9°F3.3°C 69% 8.7 mph SW14.0 kmh SW 8.7 mph14.0 kmh 30.22 in1023.4 mb - 0.03 in0.8 mm 0.12 in3.0 mm
10:42 AM 47.8°F8.8°C 38.1°F3.4°C 69% 12.3 mph SW19.8 kmh SW 23.3 mph37.5 kmh 30.22 in1023.4 mb - 0.03 in0.8 mm 0.12 in3.0 mm
10:47 AM 48.0°F8.9°C 37.9°F3.3°C 68% 12.5 mph WSW20.1 kmh WSW 12.5 mph20.1 kmh 30.19 in1022.4 mb - 0.03 in0.8 mm 0.12 in3.0 mm
10:52 AM 48.2°F9.0°C 38.1°F3.4°C 68% 10.7 mph WSW17.2 kmh WSW 21.7 mph34.9 kmh 30.19 in1022.4 mb - 0.03 in0.8 mm 0.12 in3.0 mm
10:57 AM 48.4°F9.1°C 37.9°F3.3°C 67% 11.6 mph WSW18.7 kmh WSW 34.2 mph55.0 kmh 30.19 in1022.4 mb - 0.03 in0.8 mm 0.12 in3.0 mm
11:02 AM 48.6°F9.2°C 37.4°F3.0°C 65% 12.5 mph WSW20.1 kmh WSW 28.4 mph45.7 kmh 30.22 in1023.4 mb - 0.03 in0.8 mm 0.12 in3.0 mm
11:07 AM 48.6°F9.2°C 37.4°F3.0°C 65% 15.7 mph W25.3 kmh W 33.3 mph53.6 kmh 30.22 in1023.4 mb - 0.03 in0.8 mm 0.12 in3.0 mm
11:12 AM 48.6°F9.2°C 37.4°F3.0°C 65% 16.3 mph WNW26.2 kmh WNW 29.1 mph46.8 kmh 30.22 in1023.4 mb - 0.03 in0.8 mm 0.12 in3.0 mm
11:17 AM 48.6°F9.2°C 38.1°F3.4°C 67% 15.9 mph W25.6 kmh W 40.7 mph65.5 kmh 30.22 in1023.4 mb - 0.03 in0.8 mm 0.12 in3.0 mm
11:22 AM 48.2°F9.0°C 38.5°F3.6°C 69% 14.3 mph WNW23.0 kmh WNW 29.5 mph47.5 kmh 30.22 in1023.4 mb - 0.03 in0.8 mm 0.12 in3.0 mm
11:27 AM 48.4°F9.1°C 38.7°F3.7°C 69% 12.8 mph W20.6 kmh W 32.4 mph52.1 kmh 30.22 in1023.4 mb - 0.03 in0.8 mm 0.12 in3.0 mm
11:32 AM 48.7°F9.3°C 38.7°F3.7°C 68% 12.5 mph SW20.1 kmh SW 31.8 mph51.2 kmh 30.22 in1023.4 mb - 0.03 in0.8 mm 0.16 in4.1 mm
11:37 AM 48.9°F9.4°C 38.5°F3.6°C 67% 12.5 mph WSW20.1 kmh WSW 28.2 mph45.4 kmh 30.22 in1023.4 mb - 0.03 in0.8 mm 0.16 in4.1 mm
11:42 AM 49.3°F9.6°C 38.5°F3.6°C 66% 13.2 mph WSW21.2 kmh WSW 28.0 mph45.1 kmh 30.22 in1023.4 mb - 0.03 in0.8 mm 0.16 in4.1 mm
11:47 AM 49.5°F9.7°C 38.1°F3.4°C 65% 12.8 mph WSW20.6 kmh WSW 31.3 mph50.4 kmh 30.19 in1022.4 mb - 0.03 in0.8 mm 0.16 in4.1 mm
11:52 AM 50.0°F10.0°C 38.3°F3.5°C 64% 12.8 mph WNW20.6 kmh WNW 26.8 mph43.1 kmh 30.19 in1022.4 mb - 0.03 in0.8 mm 0.16 in4.1 mm
11:57 AM 50.2°F10.1°C 38.1°F3.4°C 63% 13.2 mph WSW21.2 kmh WSW 25.9 mph41.7 kmh 30.19 in1022.4 mb - 0.03 in0.8 mm 0.16 in4.1 mm
12:02 PM 50.0°F10.0°C 37.9°F3.3°C 63% 12.3 mph WSW19.8 kmh WSW 28.9 mph46.5 kmh 30.22 in1023.4 mb - 0.03 in0.8 mm 0.16 in4.1 mm
12:07 PM 49.8°F9.9°C 37.8°F3.2°C 63% 13.0 mph WSW20.9 kmh WSW 25.9 mph41.7 kmh 30.22 in1023.4 mb - 0.03 in0.8 mm 0.16 in4.1 mm
12:12 PM 49.8°F9.9°C 37.8°F3.2°C 63% 11.6 mph W18.7 kmh W 22.1 mph35.6 kmh 30.22 in1023.4 mb - 0.03 in0.8 mm 0.16 in4.1 mm
12:17 PM 49.6°F9.8°C 37.6°F3.1°C 63% 10.7 mph NW17.2 kmh NW 26.6 mph42.8 kmh 30.22 in1023.4 mb - 0.03 in0.8 mm 0.16 in4.1 mm
12:22 PM 49.5°F9.7°C 37.8°F3.2°C 64% 8.3 mph WSW13.4 kmh WSW 20.8 mph33.5 kmh 30.22 in1023.4 mb - 0.03 in0.8 mm 0.16 in4.1 mm
12:27 PM 49.6°F9.8°C 37.6°F3.1°C 63% 11.0 mph NW17.7 kmh NW 23.7 mph38.1 kmh 30.22 in1023.4 mb - 0.03 in0.8 mm 0.16 in4.1 mm
12:32 PM 49.6°F9.8°C 37.6°F3.1°C 63% 10.3 mph SW16.6 kmh SW 24.6 mph39.6 kmh 30.19 in1022.4 mb - 0.03 in0.8 mm 0.16 in4.1 mm
12:37 PM 49.6°F9.8°C 37.6°F3.1°C 63% 9.6 mph WNW15.4 kmh WNW 36.0 mph57.9 kmh 30.19 in1022.4 mb - 0.03 in0.8 mm 0.16 in4.1 mm
12:42 PM 49.8°F9.9°C 37.8°F3.2°C 63% 10.7 mph WNW17.2 kmh WNW 24.4 mph39.3 kmh 30.19 in1022.4 mb - 0.03 in0.8 mm 0.16 in4.1 mm
12:47 PM 50.0°F10.0°C 37.9°F3.3°C 63% 10.5 mph W16.9 kmh W 29.1 mph46.8 kmh 30.19 in1022.4 mb - 0.03 in0.8 mm 0.16 in4.1 mm
12:52 PM 49.8°F9.9°C 37.4°F3.0°C 62% 9.4 mph WSW15.1 kmh WSW 19.7 mph31.7 kmh 30.19 in1022.4 mb - 0.03 in0.8 mm 0.16 in4.1 mm
12:57 PM 49.8°F9.9°C 37.4°F3.0°C 62% 8.7 mph WNW14.0 kmh WNW 19.0 mph30.6 kmh 30.19 in1022.4 mb - 0.03 in0.8 mm 0.16 in4.1 mm
01:02 PM 50.0°F10.0°C 37.0°F2.8°C 61% 11.0 mph NW17.7 kmh NW 26.4 mph42.5 kmh 30.19 in1022.4 mb - 0.03 in0.8 mm 0.16 in4.1 mm
01:07 PM 49.8°F9.9°C 36.5°F2.5°C 60% 13.0 mph WNW20.9 kmh WNW 27.5 mph44.3 kmh 30.19 in1022.4 mb - 0.03 in0.8 mm 0.16 in4.1 mm
01:12 PM 50.0°F10.0°C 35.8°F2.1°C 58% 12.5 mph WNW20.1 kmh WNW 34.0 mph54.7 kmh 30.19 in1022.4 mb - 0.03 in0.8 mm 0.16 in4.1 mm
01:17 PM 50.0°F10.0°C 35.8°F2.1°C 58% 15.0 mph NW24.1 kmh NW 27.5 mph44.3 kmh 30.22 in1023.4 mb - 0.03 in0.8 mm 0.16 in4.1 mm
01:22 PM 50.0°F10.0°C 35.8°F2.1°C 58% 15.0 mph WNW24.1 kmh WNW 28.0 mph45.1 kmh 30.22 in1023.4 mb - 0.03 in0.8 mm 0.16 in4.1 mm
01:27 PM 50.0°F10.0°C 36.3°F2.4°C 59% 15.0 mph NW24.1 kmh NW 31.5 mph50.7 kmh 30.22 in1023.4 mb - 0.03 in0.8 mm 0.16 in4.1 mm
01:32 PM 50.0°F10.0°C 36.7°F2.6°C 60% 13.6 mph WNW21.9 kmh WNW 34.2 mph55.0 kmh 30.19 in1022.4 mb - 0.00 in0.0 mm 0.16 in4.1 mm
01:37 PM 50.0°F10.0°C 36.3°F2.4°C 59% 8.9 mph NNW14.3 kmh NNW 21.7 mph34.9 kmh 30.19 in1022.4 mb - 0.00 in0.0 mm 0.16 in4.1 mm
01:42 PM 50.0°F10.0°C 36.3°F2.4°C 59% 9.4 mph WSW15.1 kmh WSW 22.6 mph36.4 kmh 30.19 in1022.4 mb - 0.00 in0.0 mm 0.16 in4.1 mm
01:57 PM 49.1°F9.5°C 37.0°F2.8°C 63% 11.9 mph WNW19.2 kmh WNW 28.2 mph45.4 kmh 30.19 in1022.4 mb - 0.00 in0.0 mm 0.16 in4.1 mm
02:02 PM 48.6°F9.2°C 37.0°F2.8°C 64% 13.0 mph WNW20.9 kmh WNW 32.9 mph52.9 kmh 30.22 in1023.4 mb - 0.00 in0.0 mm 0.16 in4.1 mm
02:07 PM 48.6°F9.2°C 37.8°F3.2°C 66% 11.0 mph WNW17.7 kmh WNW 29.8 mph48.0 kmh 30.22 in1023.4 mb - 0.00 in0.0 mm 0.16 in4.1 mm
02:12 PM 48.7°F9.3°C 38.3°F3.5°C 67% 16.3 mph WNW26.2 kmh WNW 36.5 mph58.7 kmh 30.22 in1023.4 mb - 0.00 in0.0 mm 0.16 in4.1 mm
02:17 PM 49.1°F9.5°C 38.3°F3.5°C 66% 14.3 mph W23.0 kmh W 25.3 mph40.7 kmh 30.22 in1023.4 mb - 0.00 in0.0 mm 0.16 in4.1 mm
02:22 PM 49.5°F9.7°C 37.8°F3.2°C 64% 9.8 mph NW15.8 kmh NW 20.1 mph32.3 kmh 30.22 in1023.4 mb - 0.00 in0.0 mm 0.16 in4.1 mm
02:27 PM 49.8°F9.9°C 37.8°F3.2°C 63% 7.4 mph NW11.9 kmh NW 19.7 mph31.7 kmh 30.22 in1023.4 mb - 0.00 in0.0 mm 0.16 in4.1 mm
02:32 PM 49.5°F9.7°C 37.8°F3.2°C 64% 10.1 mph NW16.3 kmh NW 26.4 mph42.5 kmh 30.22 in1023.4 mb - 0.00 in0.0 mm 0.16 in4.1 mm
02:37 PM 48.9°F9.4°C 38.5°F3.6°C 67% 11.2 mph W18.0 kmh W 25.3 mph40.7 kmh 30.22 in1023.4 mb - 0.00 in0.0 mm 0.16 in4.1 mm
02:42 PM 48.7°F9.3°C 38.3°F3.5°C 67% 15.4 mph W24.8 kmh W 36.7 mph59.1 kmh 30.22 in1023.4 mb - 0.00 in0.0 mm 0.16 in4.1 mm
02:47 PM 49.1°F9.5°C 38.3°F3.5°C 66% 13.4 mph W21.6 kmh W 27.5 mph44.3 kmh 30.22 in1023.4 mb - 0.00 in0.0 mm 0.16 in4.1 mm
02:52 PM 49.6°F9.8°C 38.8°F3.8°C 66% 9.8 mph W15.8 kmh W 24.6 mph39.6 kmh 30.22 in1023.4 mb - 0.00 in0.0 mm 0.16 in4.1 mm
02:57 PM 49.1°F9.5°C 37.4°F3.0°C 64% 13.4 mph W21.6 kmh W 25.9 mph41.7 kmh 30.22 in1023.4 mb - 0.00 in0.0 mm 0.16 in4.1 mm
03:02 PM 48.9°F9.4°C 36.9°F2.7°C 63% 14.3 mph WSW23.0 kmh WSW 28.4 mph45.7 kmh 30.22 in1023.4 mb - 0.00 in0.0 mm 0.16 in4.1 mm
03:07 PM 49.1°F9.5°C 37.0°F2.8°C 63% 18.1 mph WSW29.1 kmh WSW 32.0 mph51.5 kmh 30.22 in1023.4 mb - 0.00 in0.0 mm 0.16 in4.1 mm
03:12 PM 49.3°F9.6°C 36.9°F2.7°C 62% 13.4 mph W21.6 kmh W 33.3 mph53.6 kmh 30.22 in1023.4 mb - 0.00 in0.0 mm 0.16 in4.1 mm
03:17 PM 49.3°F9.6°C 36.5°F2.5°C 61% 13.2 mph WSW21.2 kmh WSW 34.9 mph56.2 kmh 30.19 in1022.4 mb - 0.00 in0.0 mm 0.16 in4.1 mm
03:22 PM 49.5°F9.7°C 36.7°F2.6°C 61% 15.7 mph W25.3 kmh W 27.5 mph44.3 kmh 30.19 in1022.4 mb - 0.00 in0.0 mm 0.16 in4.1 mm
03:27 PM 49.8°F9.9°C 36.9°F2.7°C 61% 16.8 mph W27.0 kmh W 34.9 mph56.2 kmh 30.19 in1022.4 mb - 0.00 in0.0 mm 0.16 in4.1 mm
03:32 PM 49.6°F9.8°C 37.2°F2.9°C 62% 16.8 mph WSW27.0 kmh WSW 28.9 mph46.5 kmh 30.22 in1023.4 mb - 0.00 in0.0 mm 0.16 in4.1 mm
03:37 PM 49.1°F9.5°C 37.4°F3.0°C 64% 11.2 mph NW18.0 kmh NW 25.9 mph41.7 kmh 30.22 in1023.4 mb - 0.00 in0.0 mm 0.16 in4.1 mm
03:42 PM 47.3°F8.5°C 36.1°F2.3°C 65% 10.3 mph W16.6 kmh W 22.6 mph36.4 kmh 30.22 in1023.4 mb - 0.00 in0.0 mm 0.16 in4.1 mm
03:47 PM 46.8°F8.2°C 37.6°F3.1°C 70% 10.5 mph W16.9 kmh W 21.9 mph35.2 kmh 30.25 in1024.4 mb - 0.00 in0.0 mm 0.16 in4.1 mm
03:52 PM 46.6°F8.1°C 38.1°F3.4°C 72% 16.6 mph NW26.7 kmh NW 36.7 mph59.1 kmh 30.25 in1024.4 mb - 0.00 in0.0 mm 0.16 in4.1 mm
03:57 PM 46.6°F8.1°C 38.5°F3.6°C 73% 13.6 mph W21.9 kmh W 27.5 mph44.3 kmh 30.25 in1024.4 mb - 0.00 in0.0 mm 0.16 in4.1 mm
04:02 PM 46.8°F8.2°C 39.0°F3.9°C 74% 11.4 mph WNW18.3 kmh WNW 24.2 mph38.9 kmh 30.22 in1023.4 mb - 0.00 in0.0 mm 0.16 in4.1 mm
04:07 PM 46.9°F8.3°C 39.0°F3.9°C 74% 8.3 mph W13.4 kmh W 18.1 mph29.1 kmh 30.22 in1023.4 mb - 0.00 in0.0 mm 0.16 in4.1 mm
04:12 PM 47.1°F8.4°C 39.2°F4.0°C 74% 11.0 mph W17.7 kmh W 25.9 mph41.7 kmh 30.22 in1023.4 mb - 0.00 in0.0 mm 0.16 in4.1 mm
04:17 PM 47.3°F8.5°C 39.0°F3.9°C 73% 9.6 mph WNW15.4 kmh WNW 20.6 mph33.2 kmh 30.22 in1023.4 mb - 0.00 in0.0 mm 0.16 in4.1 mm
04:22 PM 47.7°F8.7°C 38.7°F3.7°C 71% 7.4 mph WSW11.9 kmh WSW 19.7 mph31.7 kmh 30.22 in1023.4 mb - 0.00 in0.0 mm 0.16 in4.1 mm
04:27 PM 47.8°F8.8°C 38.5°F3.6°C 70% 5.1 mph NW8.2 kmh NW 11.9 mph19.2 kmh 30.22 in1023.4 mb - 0.00 in0.0 mm 0.16 in4.1 mm
04:32 PM 48.0°F8.9°C 38.3°F3.5°C 69% 6.0 mph NW9.7 kmh NW 17.7 mph28.5 kmh 30.22 in1023.4 mb - 0.00 in0.0 mm 0.16 in4.1 mm
04:37 PM 48.2°F9.0°C 38.1°F3.4°C 68% 6.3 mph WSW10.1 kmh WSW 12.1 mph19.5 kmh 30.22 in1023.4 mb - 0.00 in0.0 mm 0.16 in4.1 mm
04:42 PM 48.6°F9.2°C 37.4°F3.0°C 65% 9.4 mph W15.1 kmh W 18.3 mph29.5 kmh 30.22 in1023.4 mb - 0.00 in0.0 mm 0.16 in4.1 mm
04:47 PM 48.6°F9.2°C 37.0°F2.8°C 64% 7.4 mph WNW11.9 kmh WNW 15.9 mph25.6 kmh 30.22 in1023.4 mb - 0.00 in0.0 mm 0.16 in4.1 mm
04:52 PM 48.7°F9.3°C 37.2°F2.9°C 64% 8.7 mph WSW14.0 kmh WSW 17.4 mph28.0 kmh 30.22 in1023.4 mb - 0.00 in0.0 mm 0.16 in4.1 mm
04:57 PM 48.7°F9.3°C 36.7°F2.6°C 63% 8.3 mph WSW13.4 kmh WSW 21.3 mph34.3 kmh 30.22 in1023.4 mb - 0.00 in0.0 mm 0.16 in4.1 mm
05:02 PM 48.7°F9.3°C 36.7°F2.6°C 63% 8.7 mph NW14.0 kmh NW 19.2 mph30.9 kmh 30.22 in1023.4 mb - 0.00 in0.0 mm 0.16 in4.1 mm
05:07 PM 48.7°F9.3°C 36.7°F2.6°C 63% 8.5 mph WSW13.7 kmh WSW 18.8 mph30.3 kmh 30.22 in1023.4 mb - 0.00 in0.0 mm 0.16 in4.1 mm
05:12 PM 48.7°F9.3°C 36.7°F2.6°C 63% 7.6 mph NW12.2 kmh NW 15.7 mph25.3 kmh 30.22 in1023.4 mb - 0.00 in0.0 mm 0.16 in4.1 mm
05:17 PM 48.4°F9.1°C 36.9°F2.7°C 64% 10.7 mph WNW17.2 kmh WNW 22.6 mph36.4 kmh 30.25 in1024.4 mb - 0.00 in0.0 mm 0.16 in4.1 mm
05:22 PM 48.2°F9.0°C 37.0°F2.8°C 65% 14.8 mph W23.8 kmh W 28.4 mph45.7 kmh 30.25 in1024.4 mb - 0.00 in0.0 mm 0.16 in4.1 mm
05:27 PM 48.0°F8.9°C 37.2°F2.9°C 66% 11.6 mph NW18.7 kmh NW 21.7 mph34.9 kmh 30.25 in1024.4 mb - 0.00 in0.0 mm 0.16 in4.1 mm
05:32 PM 47.8°F8.8°C 37.4°F3.0°C 67% 9.8 mph WNW15.8 kmh WNW 17.4 mph28.0 kmh 30.25 in1024.4 mb - 0.00 in0.0 mm 0.16 in4.1 mm
05:37 PM 47.7°F8.7°C 37.6°F3.1°C 68% 9.8 mph WSW15.8 kmh WSW 17.9 mph28.8 kmh 30.25 in1024.4 mb - 0.00 in0.0 mm 0.16 in4.1 mm
05:42 PM 47.5°F8.6°C 37.4°F3.0°C 68% 6.9 mph WSW11.1 kmh WSW 17.4 mph28.0 kmh 30.25 in1024.4 mb - 0.00 in0.0 mm 0.16 in4.1 mm
05:47 PM 47.5°F8.6°C 37.8°F3.2°C 69% 7.4 mph W11.9 kmh W 17.0 mph27.4 kmh 30.25 in1024.4 mb - 0.00 in0.0 mm 0.16 in4.1 mm
05:52 PM 47.7°F8.7°C 37.6°F3.1°C 68% 7.2 mph W11.6 kmh W 16.1 mph25.9 kmh 30.25 in1024.4 mb - 0.00 in0.0 mm 0.16 in4.1 mm
05:57 PM 47.8°F8.8°C 37.4°F3.0°C 67% 5.8 mph WSW9.3 kmh WSW 11.0 mph17.7 kmh 30.25 in1024.4 mb - 0.00 in0.0 mm 0.16 in4.1 mm
06:02 PM 48.0°F8.9°C 37.2°F2.9°C 66% 8.9 mph W14.3 kmh W 18.1 mph29.1 kmh 30.25 in1024.4 mb - 0.00 in0.0 mm 0.16 in4.1 mm
06:07 PM 48.0°F8.9°C 37.2°F2.9°C 66% 9.2 mph WNW14.8 kmh WNW 17.0 mph27.4 kmh 30.25 in1024.4 mb - 0.00 in0.0 mm 0.16 in4.1 mm
06:12 PM 48.2°F9.0°C 36.7°F2.6°C 64% 10.3 mph SW16.6 kmh SW 19.2 mph30.9 kmh 30.25 in1024.4 mb - 0.00 in0.0 mm 0.16 in4.1 mm
06:17 PM 48.4°F9.1°C 36.3°F2.4°C 63% 10.1 mph W16.3 kmh W 17.2 mph27.7 kmh 30.25 in1024.4 mb - 0.00 in0.0 mm 0.16 in4.1 mm
06:22 PM 48.4°F9.1°C 36.3°F2.4°C 63% 11.4 mph WSW18.3 kmh WSW 22.1 mph35.6 kmh 30.25 in1024.4 mb - 0.00 in0.0 mm 0.16 in4.1 mm
06:27 PM 48.2°F9.0°C 36.7°F2.6°C 64% 10.1 mph W16.3 kmh W 18.8 mph30.3 kmh 30.25 in1024.4 mb - 0.00 in0.0 mm 0.16 in4.1 mm
06:32 PM 48.2°F9.0°C 36.7°F2.6°C 64% 11.2 mph W18.0 kmh W 19.2 mph30.9 kmh 30.25 in1024.4 mb - 0.00 in0.0 mm 0.16 in4.1 mm
06:37 PM 48.0°F8.9°C 36.5°F2.5°C 64% 11.2 mph W18.0 kmh W 20.8 mph33.5 kmh 30.25 in1024.4 mb - 0.00 in0.0 mm 0.16 in4.1 mm
06:42 PM 48.0°F8.9°C 36.5°F2.5°C 64% 11.4 mph WNW18.3 kmh WNW 20.1 mph32.3 kmh 30.25 in1024.4 mb - 0.00 in0.0 mm 0.16 in4.1 mm
06:47 PM 48.0°F8.9°C 36.1°F2.3°C 63% 12.5 mph W20.1 kmh W 21.0 mph33.8 kmh 30.28 in1025.4 mb - 0.00 in0.0 mm 0.16 in4.1 mm
06:52 PM 48.0°F8.9°C 36.1°F2.3°C 63% 8.9 mph WSW14.3 kmh WSW 22.8 mph36.7 kmh 30.28 in1025.4 mb - 0.00 in0.0 mm 0.16 in4.1 mm
06:57 PM 47.8°F8.8°C 36.0°F2.2°C 63% 8.5 mph W13.7 kmh W 20.8 mph33.5 kmh 30.28 in1025.4 mb - 0.00 in0.0 mm 0.16 in4.1 mm
07:02 PM 47.8°F8.8°C 36.3°F2.4°C 64% 9.2 mph WSW14.8 kmh WSW 16.6 mph26.7 kmh 30.31 in1026.4 mb - 0.00 in0.0 mm 0.16 in4.1 mm
07:07 PM 47.8°F8.8°C 36.3°F2.4°C 64% 9.4 mph W15.1 kmh W 17.7 mph28.5 kmh 30.31 in1026.4 mb - 0.00 in0.0 mm 0.16 in4.1 mm
07:12 PM 47.8°F8.8°C 36.3°F2.4°C 64% 9.6 mph W15.4 kmh W 17.2 mph27.7 kmh 30.31 in1026.4 mb - 0.00 in0.0 mm 0.16 in4.1 mm
07:17 PM 47.8°F8.8°C 36.3°F2.4°C 64% 8.7 mph WSW14.0 kmh WSW 17.0 mph27.4 kmh 30.28 in1025.4 mb - 0.00 in0.0 mm 0.16 in4.1 mm
07:22 PM 47.8°F8.8°C 36.3°F2.4°C 64% 10.5 mph WNW16.9 kmh WNW 20.4 mph32.8 kmh 30.28 in1025.4 mb - 0.00 in0.0 mm 0.16 in4.1 mm
07:27 PM 48.0°F8.9°C 36.5°F2.5°C 64% 6.9 mph SW11.1 kmh SW 12.1 mph19.5 kmh 30.28 in1025.4 mb - 0.00 in0.0 mm 0.16 in4.1 mm
07:32 PM 48.2°F9.0°C 36.1°F2.3°C 63% 9.8 mph W15.8 kmh W 17.0 mph27.4 kmh 30.28 in1025.4 mb - 0.00 in0.0 mm 0.16 in4.1 mm
07:37 PM 48.2°F9.0°C 36.1°F2.3°C 63% 9.2 mph W14.8 kmh W 19.2 mph30.9 kmh 30.28 in1025.4 mb - 0.00 in0.0 mm 0.16 in4.1 mm
07:42 PM 48.2°F9.0°C 36.1°F2.3°C 63% 11.6 mph WSW18.7 kmh WSW 21.7 mph34.9 kmh 30.28 in1025.4 mb - 0.00 in0.0 mm 0.16 in4.1 mm
07:47 PM 48.2°F9.0°C 36.1°F2.3°C 63% 10.3 mph W16.6 kmh W 19.2 mph30.9 kmh 30.28 in1025.4 mb - 0.00 in0.0 mm 0.16 in4.1 mm
07:52 PM 48.2°F9.0°C 36.7°F2.6°C 64% 8.3 mph WNW13.4 kmh WNW 20.4 mph32.8 kmh 30.28 in1025.4 mb - 0.00 in0.0 mm 0.16 in4.1 mm
07:57 PM 47.7°F8.7°C 37.6°F3.1°C 68% 9.8 mph WNW15.8 kmh WNW 19.0 mph30.6 kmh 30.28 in1025.4 mb - 0.00 in0.0 mm 0.16 in4.1 mm
08:02 PM 47.1°F8.4°C 37.9°F3.3°C 70% 8.1 mph NW13.0 kmh NW 21.5 mph34.6 kmh 30.28 in1025.4 mb - 0.00 in0.0 mm 0.16 in4.1 mm
08:07 PM 46.9°F8.3°C 37.8°F3.2°C 70% 10.5 mph NW16.9 kmh NW 20.1 mph32.3 kmh 30.28 in1025.4 mb - 0.00 in0.0 mm 0.16 in4.1 mm
08:12 PM 47.1°F8.4°C 37.9°F3.3°C 70% 8.9 mph SW14.3 kmh SW 17.0 mph27.4 kmh 30.28 in1025.4 mb - 0.00 in0.0 mm 0.16 in4.1 mm
08:17 PM 47.3°F8.5°C 37.2°F2.9°C 68% 9.2 mph WSW14.8 kmh WSW 16.6 mph26.7 kmh 30.31 in1026.4 mb - 0.00 in0.0 mm 0.16 in4.1 mm
08:22 PM 47.3°F8.5°C 36.9°F2.7°C 67% 8.3 mph W13.4 kmh W 15.0 mph24.1 kmh 30.31 in1026.4 mb - 0.00 in0.0 mm 0.16 in4.1 mm
08:27 PM 47.5°F8.6°C 37.0°F2.8°C 67% 10.3 mph W16.6 kmh W 23.7 mph38.1 kmh 30.31 in1026.4 mb - 0.00 in0.0 mm 0.16 in4.1 mm
08:32 PM 47.3°F8.5°C 37.2°F2.9°C 68% 8.5 mph NW13.7 kmh NW 15.9 mph25.6 kmh 30.31 in1026.4 mb - 0.00 in0.0 mm 0.16 in4.1 mm
08:37 PM 47.1°F8.4°C 37.0°F2.8°C 68% 10.3 mph WSW16.6 kmh WSW 18.3 mph29.5 kmh 30.31 in1026.4 mb - 0.00 in0.0 mm 0.16 in4.1 mm
08:42 PM 47.1°F8.4°C 37.6°F3.1°C 69% 11.0 mph WNW17.7 kmh WNW 21.7 mph34.9 kmh 30.31 in1026.4 mb - 0.00 in0.0 mm 0.16 in4.1 mm
08:47 PM 47.3°F8.5°C 37.2°F2.9°C 68% 6.7 mph W10.8 kmh W 13.9 mph22.4 kmh 30.31 in1026.4 mb - 0.00 in0.0 mm 0.16 in4.1 mm
08:52 PM 47.3°F8.5°C 36.9°F2.7°C 67% 5.1 mph NW8.2 kmh NW 17.4 mph28.0 kmh 30.31 in1026.4 mb - 0.00 in0.0 mm 0.16 in4.1 mm
08:57 PM 47.5°F8.6°C 37.0°F2.8°C 67% 6.9 mph NW11.1 kmh NW 15.4 mph24.8 kmh 30.31 in1026.4 mb - 0.00 in0.0 mm 0.16 in4.1 mm
09:02 PM 47.5°F8.6°C 36.3°F2.4°C 65% 7.6 mph NW12.2 kmh NW 21.7 mph34.9 kmh 30.31 in1026.4 mb - 0.00 in0.0 mm 0.16 in4.1 mm
09:07 PM 47.5°F8.6°C 36.3°F2.4°C 65% 7.2 mph WNW11.6 kmh WNW 15.2 mph24.5 kmh 30.31 in1026.4 mb - 0.00 in0.0 mm 0.16 in4.1 mm
09:12 PM 47.7°F8.7°C 36.1°F2.3°C 64% 8.5 mph W13.7 kmh W 13.4 mph21.6 kmh 30.31 in1026.4 mb - 0.00 in0.0 mm 0.16 in4.1 mm
09:17 PM 47.7°F8.7°C 35.8°F2.1°C 63% 8.1 mph WSW13.0 kmh WSW 19.9 mph32.0 kmh 30.31 in1026.4 mb - 0.00 in0.0 mm 0.16 in4.1 mm
09:22 PM 47.7°F8.7°C 35.8°F2.1°C 63% 11.2 mph W18.0 kmh W 19.0 mph30.6 kmh 30.31 in1026.4 mb - 0.00 in0.0 mm 0.16 in4.1 mm
09:27 PM 47.5°F8.6°C 35.6°F2.0°C 63% 10.3 mph W16.6 kmh W 22.6 mph36.4 kmh 30.31 in1026.4 mb - 0.00 in0.0 mm 0.16 in4.1 mm
09:32 PM 47.5°F8.6°C 36.0°F2.2°C 64% 11.2 mph W18.0 kmh W 20.4 mph32.8 kmh 30.31 in1026.4 mb - 0.00 in0.0 mm 0.16 in4.1 mm
09:37 PM 47.5°F8.6°C 35.6°F2.0°C 63% 8.1 mph W13.0 kmh W 15.2 mph24.5 kmh 30.31 in1026.4 mb - 0.00 in0.0 mm 0.16 in4.1 mm
09:42 PM 47.5°F8.6°C 35.6°F2.0°C 63% 6.5 mph W10.5 kmh W 16.6 mph26.7 kmh 30.31 in1026.4 mb - 0.00 in0.0 mm 0.16 in4.1 mm
09:47 PM 47.5°F8.6°C 35.1°F1.7°C 62% 10.1 mph W16.3 kmh W 16.8 mph27.0 kmh 30.31 in1026.4 mb - 0.00 in0.0 mm 0.16 in4.1 mm
09:52 PM 47.5°F8.6°C 35.6°F2.0°C 63% 9.6 mph WNW15.4 kmh WNW 21.3 mph34.3 kmh 30.31 in1026.4 mb - 0.00 in0.0 mm 0.16 in4.1 mm
09:57 PM 47.3°F8.5°C 35.8°F2.1°C 64% 10.5 mph W16.9 kmh W 19.0 mph30.6 kmh 30.31 in1026.4 mb - 0.00 in0.0 mm 0.16 in4.1 mm
10:02 PM 47.3°F8.5°C 35.8°F2.1°C 64% 8.5 mph SW13.7 kmh SW 17.0 mph27.4 kmh 30.31 in1026.4 mb - 0.00 in0.0 mm 0.16 in4.1 mm
10:07 PM 47.1°F8.4°C 36.0°F2.2°C 65% 5.8 mph W9.3 kmh W 13.4 mph21.6 kmh 30.31 in1026.4 mb - 0.00 in0.0 mm 0.16 in4.1 mm
10:12 PM 47.3°F8.5°C 35.8°F2.1°C 64% 5.1 mph W8.2 kmh W 10.5 mph16.9 kmh 30.31 in1026.4 mb - 0.00 in0.0 mm 0.16 in4.1 mm
10:17 PM 47.3°F8.5°C 35.8°F2.1°C 64% 5.4 mph NW8.7 kmh NW 10.3 mph16.6 kmh 30.31 in1026.4 mb - 0.00 in0.0 mm 0.16 in4.1 mm
10:22 PM 47.3°F8.5°C 35.8°F2.1°C 64% 7.2 mph W11.6 kmh W 13.4 mph21.6 kmh 30.31 in1026.4 mb - 0.00 in0.0 mm 0.16 in4.1 mm
10:27 PM 47.3°F8.5°C 35.8°F2.1°C 64% 7.4 mph WNW11.9 kmh WNW 13.6 mph21.9 kmh 30.31 in1026.4 mb - 0.00 in0.0 mm 0.16 in4.1 mm
10:32 PM 47.3°F8.5°C 35.8°F2.1°C 64% 8.5 mph SW13.7 kmh SW 16.6 mph26.7 kmh 30.31 in1026.4 mb - 0.00 in0.0 mm 0.16 in4.1 mm
10:37 PM 47.3°F8.5°C 35.8°F2.1°C 64% 5.6 mph WSW9.0 kmh WSW 13.6 mph21.9 kmh 30.31 in1026.4 mb - 0.00 in0.0 mm 0.16 in4.1 mm
10:42 PM 47.3°F8.5°C 35.8°F2.1°C 64% 5.6 mph W9.0 kmh W 11.2 mph18.0 kmh 30.31 in1026.4 mb - 0.00 in0.0 mm 0.16 in4.1 mm
10:47 PM 47.5°F8.6°C 36.0°F2.2°C 64% 6.7 mph WSW10.8 kmh WSW 6.7 mph10.8 kmh 30.31 in1026.4 mb - 0.00 in0.0 mm 0.16 in4.1 mm
10:52 PM 47.5°F8.6°C 36.0°F2.2°C 64% 4.9 mph WSW7.9 kmh WSW 11.4 mph18.3 kmh 30.31 in1026.4 mb - 0.00 in0.0 mm 0.16 in4.1 mm
10:57 PM 47.5°F8.6°C 36.0°F2.2°C 64% 5.6 mph W9.0 kmh W 10.3 mph16.6 kmh 30.31 in1026.4 mb - 0.00 in0.0 mm 0.16 in4.1 mm
11:02 PM 47.5°F8.6°C 36.0°F2.2°C 64% 7.2 mph SW11.6 kmh SW 11.0 mph17.7 kmh 30.31 in1026.4 mb - 0.00 in0.0 mm 0.16 in4.1 mm
11:07 PM 47.5°F8.6°C 36.0°F2.2°C 64% 4.7 mph WSW7.6 kmh WSW 8.9 mph14.3 kmh 30.31 in1026.4 mb - 0.00 in0.0 mm 0.16 in4.1 mm
11:12 PM 47.5°F8.6°C 35.6°F2.0°C 63% 5.4 mph W8.7 kmh W 10.5 mph16.9 kmh 30.31 in1026.4 mb - 0.00 in0.0 mm 0.16 in4.1 mm
11:17 PM 47.5°F8.6°C 35.6°F2.0°C 63% 3.6 mph W5.8 kmh W 11.9 mph19.2 kmh 30.31 in1026.4 mb - 0.00 in0.0 mm 0.16 in4.1 mm
11:22 PM 47.5°F8.6°C 36.0°F2.2°C 64% 6.0 mph W9.7 kmh W 10.7 mph17.2 kmh 30.31 in1026.4 mb - 0.00 in0.0 mm 0.16 in4.1 mm
11:27 PM 47.3°F8.5°C 35.8°F2.1°C 64% 6.3 mph W10.1 kmh W 13.6 mph21.9 kmh 30.31 in1026.4 mb - 0.00 in0.0 mm 0.16 in4.1 mm
11:32 PM 47.1°F8.4°C 35.6°F2.0°C 64% 5.1 mph WNW8.2 kmh WNW 9.4 mph15.1 kmh 30.31 in1026.4 mb - 0.00 in0.0 mm 0.16 in4.1 mm
11:37 PM 46.9°F8.3°C 35.4°F1.9°C 64% 5.1 mph W8.2 kmh W 9.6 mph15.4 kmh 30.31 in1026.4 mb - 0.00 in0.0 mm 0.16 in4.1 mm
11:42 PM 46.9°F8.3°C 35.4°F1.9°C 64% 3.6 mph WSW5.8 kmh WSW 8.7 mph14.0 kmh 30.31 in1026.4 mb - 0.00 in0.0 mm 0.16 in4.1 mm
11:47 PM 46.8°F8.2°C 35.2°F1.8°C 64% 5.6 mph W9.0 kmh W 10.3 mph16.6 kmh 30.31 in1026.4 mb - 0.00 in0.0 mm 0.16 in4.1 mm
11:52 PM 46.8°F8.2°C 34.9°F1.6°C 63% 4.9 mph SW7.9 kmh SW 10.7 mph17.2 kmh 30.31 in1026.4 mb - 0.00 in0.0 mm 0.16 in4.1 mm
11:57 PM 46.8°F8.2°C 34.9°F1.6°C 63% 5.1 mph W8.2 kmh W 5.1 mph8.2 kmh 30.31 in1026.4 mb - 0.00 in0.0 mm 0.16 in4.1 mm